sensor_id;sensor_type;location;lat;lon;timestamp;P1;durP1;ratioP1;P2;durP2;ratioP2
60054;SDS011;45930;53.514;55.904;2023-07-08T00:00:07;41.03;;;27.05;;
60054;SDS011;45930;53.514;55.904;2023-07-08T00:01:15;38.42;;;26.35;;
60054;SDS011;45930;53.514;55.904;2023-07-08T00:02:18;45.42;;;27.25;;
60054;SDS011;45930;53.514;55.904;2023-07-08T00:03:19;46.70;;;27.42;;
60054;SDS011;45930;53.514;55.904;2023-07-08T00:04:20;43.45;;;26.45;;
60054;SDS011;45930;53.514;55.904;2023-07-08T00:05:22;43.50;;;27.02;;
60054;SDS011;45930;53.514;55.904;2023-07-08T00:06:26;45.45;;;29.17;;
60054;SDS011;45930;53.514;55.904;2023-07-08T00:07:28;42.55;;;28.00;;
60054;SDS011;45930;53.514;55.904;2023-07-08T00:08:29;44.53;;;28.60;;
60054;SDS011;45930;53.514;55.904;2023-07-08T00:09:29;47.20;;;28.63;;
60054;SDS011;45930;53.514;55.904;2023-07-08T00:10:30;42.70;;;27.30;;
60054;SDS011;45930;53.514;55.904;2023-07-08T00:11:31;43.63;;;27.52;;
60054;SDS011;45930;53.514;55.904;2023-07-08T00:12:32;44.40;;;28.88;;
60054;SDS011;45930;53.514;55.904;2023-07-08T00:13:33;43.10;;;28.83;;
60054;SDS011;45930;53.514;55.904;2023-07-08T00:14:33;37.45;;;25.83;;
60054;SDS011;45930;53.514;55.904;2023-07-08T00:15:34;45.72;;;28.13;;
60054;SDS011;45930;53.514;55.904;2023-07-08T00:16:36;42.17;;;28.52;;
60054;SDS011;45930;53.514;55.904;2023-07-08T00:17:38;47.38;;;29.75;;
60054;SDS011;45930;53.514;55.904;2023-07-08T00:18:39;46.53;;;28.58;;
60054;SDS011;45930;53.514;55.904;2023-07-08T00:19:39;46.83;;;28.35;;
60054;SDS011;45930;53.514;55.904;2023-07-08T00:20:42;48.00;;;27.98;;
60054;SDS011;45930;53.514;55.904;2023-07-08T00:21:45;43.42;;;27.60;;
60054;SDS011;45930;53.514;55.904;2023-07-08T00:22:46;44.80;;;28.45;;
60054;SDS011;45930;53.514;55.904;2023-07-08T00:23:50;45.25;;;28.77;;
60054;SDS011;45930;53.514;55.904;2023-07-08T00:24:51;46.55;;;28.10;;
60054;SDS011;45930;53.514;55.904;2023-07-08T00:25:52;45.03;;;30.13;;
60054;SDS011;45930;53.514;55.904;2023-07-08T00:26:53;44.63;;;28.90;;
60054;SDS011;45930;53.514;55.904;2023-07-08T00:27:54;43.33;;;29.05;;
60054;SDS011;45930;53.514;55.904;2023-07-08T00:28:55;43.50;;;28.60;;
60054;SDS011;45930;53.514;55.904;2023-07-08T00:29:56;44.33;;;28.48;;
60054;SDS011;45930;53.514;55.904;2023-07-08T00:30:57;43.08;;;28.73;;
60054;SDS011;45930;53.514;55.904;2023-07-08T00:31:58;43.47;;;26.85;;
60054;SDS011;45930;53.514;55.904;2023-07-08T00:33:00;40.25;;;26.98;;
60054;SDS011;45930;53.514;55.904;2023-07-08T00:34:01;43.60;;;26.95;;
60054;SDS011;45930;53.514;55.904;2023-07-08T00:35:03;47.83;;;27.35;;
60054;SDS011;45930;53.514;55.904;2023-07-08T00:36:11;45.42;;;28.15;;
60054;SDS011;45930;53.514;55.904;2023-07-08T00:37:14;44.70;;;28.80;;
60054;SDS011;45930;53.514;55.904;2023-07-08T00:38:22;51.88;;;30.48;;
60054;SDS011;45930;53.514;55.904;2023-07-08T00:39:26;42.70;;;27.90;;
60054;SDS011;45930;53.514;55.904;2023-07-08T00:40:31;54.65;;;29.38;;
60054;SDS011;45930;53.514;55.904;2023-07-08T00:41:34;46.97;;;29.67;;
60054;SDS011;45930;53.514;55.904;2023-07-08T00:42:38;45.60;;;28.33;;
60054;SDS011;45930;53.514;55.904;2023-07-08T00:43:45;39.58;;;26.42;;
60054;SDS011;45930;53.514;55.904;2023-07-08T00:44:48;40.88;;;26.27;;
60054;SDS011;45930;53.514;55.904;2023-07-08T00:45:50;41.30;;;26.25;;
60054;SDS011;45930;53.514;55.904;2023-07-08T00:47:04;46.30;;;29.20;;
60054;SDS011;45930;53.514;55.904;2023-07-08T00:49:28;47.50;;;27.88;;
60054;SDS011;45930;53.514;55.904;2023-07-08T00:50:30;44.92;;;28.13;;
60054;SDS011;45930;53.514;55.904;2023-07-08T00:51:32;51.83;;;29.35;;
60054;SDS011;45930;53.514;55.904;2023-07-08T00:52:40;45.22;;;28.02;;
60054;SDS011;45930;53.514;55.904;2023-07-08T00:53:42;45.58;;;29.40;;
60054;SDS011;45930;53.514;55.904;2023-07-08T00:54:43;43.38;;;27.63;;
60054;SDS011;45930;53.514;55.904;2023-07-08T00:55:44;44.63;;;27.48;;
60054;SDS011;45930;53.514;55.904;2023-07-08T00:57:58;44.22;;;27.33;;
60054;SDS011;45930;53.514;55.904;2023-07-08T00:59:00;45.20;;;27.77;;
60054;SDS011;45930;53.514;55.904;2023-07-08T01:00:03;46.55;;;28.00;;
60054;SDS011;45930;53.514;55.904;2023-07-08T01:01:08;46.38;;;28.40;;
60054;SDS011;45930;53.514;55.904;2023-07-08T01:02:11;44.53;;;27.75;;
60054;SDS011;45930;53.514;55.904;2023-07-08T01:03:15;44.92;;;28.05;;
60054;SDS011;45930;53.514;55.904;2023-07-08T01:04:20;44.92;;;28.13;;
60054;SDS011;45930;53.514;55.904;2023-07-08T01:05:29;43.60;;;28.85;;
60054;SDS011;45930;53.514;55.904;2023-07-08T01:06:32;45.38;;;29.80;;
60054;SDS011;45930;53.514;55.904;2023-07-08T01:07:40;47.95;;;30.17;;
60054;SDS011;45930;53.514;55.904;2023-07-08T01:08:45;46.53;;;29.58;;
60054;SDS011;45930;53.514;55.904;2023-07-08T01:09:48;46.03;;;27.90;;
60054;SDS011;45930;53.514;55.904;2023-07-08T01:10:58;59.25;;;33.17;;
60054;SDS011;45930;53.514;55.904;2023-07-08T01:12:02;53.38;;;30.27;;
60054;SDS011;45930;53.514;55.904;2023-07-08T01:17:52;51.80;;;29.45;;
60054;SDS011;45930;53.514;55.904;2023-07-08T01:18:54;46.35;;;28.80;;
60054;SDS011;45930;53.514;55.904;2023-07-08T01:19:56;50.15;;;29.48;;
60054;SDS011;45930;53.514;55.904;2023-07-08T01:21:00;48.78;;;28.92;;
60054;SDS011;45930;53.514;55.904;2023-07-08T01:22:08;48.35;;;28.67;;
60054;SDS011;45930;53.514;55.904;2023-07-08T01:23:12;47.95;;;28.75;;
60054;SDS011;45930;53.514;55.904;2023-07-08T01:24:13;40.88;;;27.23;;
60054;SDS011;45930;53.514;55.904;2023-07-08T01:25:14;45.35;;;29.08;;
60054;SDS011;45930;53.514;55.904;2023-07-08T01:26:15;51.40;;;30.38;;
60054;SDS011;45930;53.514;55.904;2023-07-08T01:27:18;52.00;;;29.15;;
60054;SDS011;45930;53.514;55.904;2023-07-08T01:28:20;46.83;;;29.02;;
60054;SDS011;45930;53.514;55.904;2023-07-08T01:29:21;53.03;;;30.80;;
60054;SDS011;45930;53.514;55.904;2023-07-08T01:30:23;45.80;;;29.20;;
60054;SDS011;45930;53.514;55.904;2023-07-08T01:31:27;47.40;;;29.95;;
60054;SDS011;45930;53.514;55.904;2023-07-08T01:32:28;47.97;;;29.92;;
60054;SDS011;45930;53.514;55.904;2023-07-08T01:33:30;51.75;;;31.60;;
60054;SDS011;45930;53.514;55.904;2023-07-08T01:34:33;47.47;;;28.65;;
60054;SDS011;45930;53.514;55.904;2023-07-08T01:35:38;47.83;;;29.50;;
60054;SDS011;45930;53.514;55.904;2023-07-08T01:36:39;49.92;;;29.88;;
60054;SDS011;45930;53.514;55.904;2023-07-08T01:37:44;52.42;;;30.45;;
60054;SDS011;45930;53.514;55.904;2023-07-08T01:39:12;47.85;;;29.00;;
60054;SDS011;45930;53.514;55.904;2023-07-08T01:40:23;47.53;;;28.92;;
60054;SDS011;45930;53.514;55.904;2023-07-08T01:41:27;46.45;;;29.08;;
60054;SDS011;45930;53.514;55.904;2023-07-08T01:42:28;42.20;;;28.88;;
60054;SDS011;45930;53.514;55.904;2023-07-08T01:43:29;44.63;;;27.00;;
60054;SDS011;45930;53.514;55.904;2023-07-08T01:44:34;46.17;;;27.20;;
60054;SDS011;45930;53.514;55.904;2023-07-08T01:45:37;47.60;;;27.05;;
60054;SDS011;45930;53.514;55.904;2023-07-08T01:46:40;44.60;;;27.27;;
60054;SDS011;45930;53.514;55.904;2023-07-08T01:47:41;48.20;;;25.35;;
60054;SDS011;45930;53.514;55.904;2023-07-08T01:48:46;45.22;;;27.02;;
60054;SDS011;45930;53.514;55.904;2023-07-08T01:49:58;43.38;;;25.52;;
60054;SDS011;45930;53.514;55.904;2023-07-08T01:51:08;42.15;;;24.92;;
60054;SDS011;45930;53.514;55.904;2023-07-08T01:52:09;43.42;;;26.95;;
60054;SDS011;45930;53.514;55.904;2023-07-08T01:53:14;45.33;;;26.02;;
60054;SDS011;45930;53.514;55.904;2023-07-08T01:54:17;43.90;;;26.55;;
60054;SDS011;45930;53.514;55.904;2023-07-08T01:55:21;44.72;;;27.80;;
60054;SDS011;45930;53.514;55.904;2023-07-08T01:56:24;47.30;;;29.02;;
60054;SDS011;45930;53.514;55.904;2023-07-08T01:57:25;48.78;;;26.70;;
60054;SDS011;45930;53.514;55.904;2023-07-08T01:58:25;40.67;;;24.92;;
60054;SDS011;45930;53.514;55.904;2023-07-08T01:59:28;42.97;;;26.25;;
60054;SDS011;45930;53.514;55.904;2023-07-08T02:00:29;43.35;;;25.70;;
60054;SDS011;45930;53.514;55.904;2023-07-08T02:01:29;42.35;;;24.67;;
60054;SDS011;45930;53.514;55.904;2023-07-08T02:02:30;38.15;;;22.50;;
60054;SDS011;45930;53.514;55.904;2023-07-08T02:03:31;47.90;;;22.38;;
60054;SDS011;45930;53.514;55.904;2023-07-08T02:04:32;34.80;;;20.23;;
60054;SDS011;45930;53.514;55.904;2023-07-08T02:05:33;34.40;;;20.33;;
60054;SDS011;45930;53.514;55.904;2023-07-08T02:06:34;36.65;;;19.55;;
60054;SDS011;45930;53.514;55.904;2023-07-08T02:07:34;31.10;;;18.65;;
60054;SDS011;45930;53.514;55.904;2023-07-08T02:08:35;34.92;;;20.85;;
60054;SDS011;45930;53.514;55.904;2023-07-08T02:09:36;30.52;;;18.55;;
60054;SDS011;45930;53.514;55.904;2023-07-08T02:10:38;35.47;;;20.15;;
60054;SDS011;45930;53.514;55.904;2023-07-08T02:11:41;34.80;;;20.13;;
60054;SDS011;45930;53.514;55.904;2023-07-08T02:12:42;32.65;;;20.08;;
60054;SDS011;45930;53.514;55.904;2023-07-08T02:13:42;32.42;;;18.40;;
60054;SDS011;45930;53.514;55.904;2023-07-08T02:14:44;35.45;;;19.63;;
60054;SDS011;45930;53.514;55.904;2023-07-08T02:15:44;29.98;;;19.20;;
60054;SDS011;45930;53.514;55.904;2023-07-08T02:16:46;36.65;;;20.38;;
60054;SDS011;45930;53.514;55.904;2023-07-08T02:17:46;35.13;;;19.08;;
60054;SDS011;45930;53.514;55.904;2023-07-08T02:18:47;35.45;;;20.55;;
60054;SDS011;45930;53.514;55.904;2023-07-08T02:19:48;34.88;;;20.38;;
60054;SDS011;45930;53.514;55.904;2023-07-08T02:20:49;41.72;;;21.30;;
60054;SDS011;45930;53.514;55.904;2023-07-08T02:21:50;34.58;;;20.58;;
60054;SDS011;45930;53.514;55.904;2023-07-08T02:22:52;46.00;;;21.48;;
60054;SDS011;45930;53.514;55.904;2023-07-08T02:23:53;40.25;;;21.00;;
60054;SDS011;45930;53.514;55.904;2023-07-08T02:24:54;33.40;;;21.52;;
60054;SDS011;45930;53.514;55.904;2023-07-08T02:25:55;37.67;;;22.85;;
60054;SDS011;45930;53.514;55.904;2023-07-08T02:26:56;36.55;;;22.15;;
60054;SDS011;45930;53.514;55.904;2023-07-08T02:27:57;37.92;;;21.80;;
60054;SDS011;45930;53.514;55.904;2023-07-08T02:28:58;42.38;;;22.35;;
60054;SDS011;45930;53.514;55.904;2023-07-08T02:30:00;36.55;;;21.10;;
60054;SDS011;45930;53.514;55.904;2023-07-08T02:31:03;41.78;;;22.65;;
60054;SDS011;45930;53.514;55.904;2023-07-08T02:32:04;51.28;;;25.00;;
60054;SDS011;45930;53.514;55.904;2023-07-08T02:33:05;56.83;;;26.85;;
60054;SDS011;45930;53.514;55.904;2023-07-08T02:34:06;47.20;;;24.48;;
60054;SDS011;45930;53.514;55.904;2023-07-08T02:35:08;57.03;;;29.35;;
60054;SDS011;45930;53.514;55.904;2023-07-08T02:36:10;74.80;;;30.92;;
60054;SDS011;45930;53.514;55.904;2023-07-08T02:37:10;63.63;;;29.10;;
60054;SDS011;45930;53.514;55.904;2023-07-08T02:38:11;67.18;;;29.35;;
60054;SDS011;45930;53.514;55.904;2023-07-08T02:39:12;56.72;;;28.50;;
60054;SDS011;45930;53.514;55.904;2023-07-08T02:40:13;77.28;;;32.65;;
60054;SDS011;45930;53.514;55.904;2023-07-08T02:41:14;72.03;;;34.15;;
60054;SDS011;45930;53.514;55.904;2023-07-08T02:42:15;79.82;;;34.63;;
60054;SDS011;45930;53.514;55.904;2023-07-08T02:43:16;72.65;;;34.80;;
60054;SDS011;45930;53.514;55.904;2023-07-08T02:44:17;76.90;;;35.22;;
60054;SDS011;45930;53.514;55.904;2023-07-08T02:45:18;73.50;;;35.40;;
60054;SDS011;45930;53.514;55.904;2023-07-08T02:46:19;65.47;;;32.47;;
60054;SDS011;45930;53.514;55.904;2023-07-08T02:47:20;66.95;;;31.48;;
60054;SDS011;45930;53.514;55.904;2023-07-08T02:48:21;65.50;;;32.17;;
60054;SDS011;45930;53.514;55.904;2023-07-08T02:49:21;64.18;;;30.92;;
60054;SDS011;45930;53.514;55.904;2023-07-08T02:50:22;75.15;;;33.95;;
60054;SDS011;45930;53.514;55.904;2023-07-08T02:51:25;69.63;;;33.15;;
60054;SDS011;45930;53.514;55.904;2023-07-08T02:52:26;70.15;;;33.85;;
60054;SDS011;45930;53.514;55.904;2023-07-08T02:53:26;67.97;;;32.45;;
60054;SDS011;45930;53.514;55.904;2023-07-08T02:54:27;68.68;;;32.92;;
60054;SDS011;45930;53.514;55.904;2023-07-08T02:55:28;67.20;;;33.22;;
60054;SDS011;45930;53.514;55.904;2023-07-08T02:56:29;62.03;;;32.10;;
60054;SDS011;45930;53.514;55.904;2023-07-08T02:57:29;68.03;;;33.45;;
60054;SDS011;45930;53.514;55.904;2023-07-08T02:58:30;64.88;;;33.85;;
60054;SDS011;45930;53.514;55.904;2023-07-08T02:59:32;69.05;;;33.63;;
60054;SDS011;45930;53.514;55.904;2023-07-08T03:00:33;74.05;;;34.67;;
60054;SDS011;45930;53.514;55.904;2023-07-08T03:01:34;74.68;;;33.97;;
60054;SDS011;45930;53.514;55.904;2023-07-08T03:02:41;67.55;;;33.92;;
60054;SDS011;45930;53.514;55.904;2023-07-08T03:03:42;86.40;;;36.47;;
60054;SDS011;45930;53.514;55.904;2023-07-08T03:04:43;64.40;;;33.25;;
60054;SDS011;45930;53.514;55.904;2023-07-08T03:05:52;62.55;;;33.75;;
60054;SDS011;45930;53.514;55.904;2023-07-08T03:06:54;62.13;;;31.73;;
60054;SDS011;45930;53.514;55.904;2023-07-08T03:07:55;65.57;;;33.40;;
60054;SDS011;45930;53.514;55.904;2023-07-08T03:08:56;79.20;;;31.83;;
60054;SDS011;45930;53.514;55.904;2023-07-08T03:09:56;66.05;;;32.30;;
60054;SDS011;45930;53.514;55.904;2023-07-08T03:10:58;60.05;;;30.80;;
60054;SDS011;45930;53.514;55.904;2023-07-08T03:12:00;59.88;;;31.35;;
60054;SDS011;45930;53.514;55.904;2023-07-08T03:13:01;59.92;;;29.73;;
60054;SDS011;45930;53.514;55.904;2023-07-08T03:14:02;59.92;;;31.40;;
60054;SDS011;45930;53.514;55.904;2023-07-08T03:15:04;66.50;;;32.50;;
60054;SDS011;45930;53.514;55.904;2023-07-08T03:16:05;54.25;;;31.13;;
60054;SDS011;45930;53.514;55.904;2023-07-08T03:17:13;62.65;;;31.55;;
60054;SDS011;45930;53.514;55.904;2023-07-08T03:18:16;57.80;;;31.73;;
60054;SDS011;45930;53.514;55.904;2023-07-08T03:19:17;57.95;;;31.55;;
60054;SDS011;45930;53.514;55.904;2023-07-08T03:20:18;57.90;;;32.22;;
60054;SDS011;45930;53.514;55.904;2023-07-08T03:21:19;65.05;;;32.85;;
60054;SDS011;45930;53.514;55.904;2023-07-08T03:22:20;61.65;;;31.13;;
60054;SDS011;45930;53.514;55.904;2023-07-08T03:23:21;53.40;;;29.38;;
60054;SDS011;45930;53.514;55.904;2023-07-08T03:24:24;48.05;;;30.10;;
60054;SDS011;45930;53.514;55.904;2023-07-08T03:25:25;56.80;;;31.10;;
60054;SDS011;45930;53.514;55.904;2023-07-08T03:26:26;60.40;;;31.23;;
60054;SDS011;45930;53.514;55.904;2023-07-08T03:27:27;54.40;;;29.75;;
60054;SDS011;45930;53.514;55.904;2023-07-08T03:28:28;52.55;;;28.50;;
60054;SDS011;45930;53.514;55.904;2023-07-08T03:29:29;50.55;;;29.02;;
60054;SDS011;45930;53.514;55.904;2023-07-08T03:30:30;50.10;;;29.50;;
60054;SDS011;45930;53.514;55.904;2023-07-08T03:31:30;51.90;;;28.67;;
60054;SDS011;45930;53.514;55.904;2023-07-08T03:32:31;53.00;;;27.95;;
60054;SDS011;45930;53.514;55.904;2023-07-08T03:33:32;52.03;;;27.83;;
60054;SDS011;45930;53.514;55.904;2023-07-08T03:34:33;51.50;;;27.10;;
60054;SDS011;45930;53.514;55.904;2023-07-08T03:35:34;59.03;;;28.52;;
60054;SDS011;45930;53.514;55.904;2023-07-08T03:36:35;56.22;;;28.50;;
60054;SDS011;45930;53.514;55.904;2023-07-08T03:37:41;59.60;;;28.35;;
60054;SDS011;45930;53.514;55.904;2023-07-08T03:38:41;56.85;;;27.73;;
60054;SDS011;45930;53.514;55.904;2023-07-08T03:39:42;45.67;;;26.77;;
60054;SDS011;45930;53.514;55.904;2023-07-08T03:40:43;50.53;;;27.00;;
60054;SDS011;45930;53.514;55.904;2023-07-08T03:41:44;42.80;;;26.60;;
60054;SDS011;45930;53.514;55.904;2023-07-08T03:42:45;46.10;;;26.27;;
60054;SDS011;45930;53.514;55.904;2023-07-08T03:43:46;45.65;;;26.33;;
60054;SDS011;45930;53.514;55.904;2023-07-08T03:44:47;45.88;;;28.15;;
60054;SDS011;45930;53.514;55.904;2023-07-08T03:45:48;58.08;;;27.30;;
60054;SDS011;45930;53.514;55.904;2023-07-08T03:46:49;48.38;;;27.23;;
60054;SDS011;45930;53.514;55.904;2023-07-08T03:47:50;44.13;;;25.23;;
60054;SDS011;45930;53.514;55.904;2023-07-08T03:48:50;43.92;;;25.05;;
60054;SDS011;45930;53.514;55.904;2023-07-08T03:49:51;52.92;;;25.40;;
60054;SDS011;45930;53.514;55.904;2023-07-08T03:50:52;45.53;;;26.40;;
60054;SDS011;45930;53.514;55.904;2023-07-08T03:51:53;47.13;;;25.33;;
60054;SDS011;45930;53.514;55.904;2023-07-08T03:52:54;39.78;;;24.10;;
60054;SDS011;45930;53.514;55.904;2023-07-08T03:53:56;35.90;;;23.20;;
60054;SDS011;45930;53.514;55.904;2023-07-08T03:54:56;38.30;;;23.25;;
60054;SDS011;45930;53.514;55.904;2023-07-08T03:55:57;43.78;;;23.55;;
60054;SDS011;45930;53.514;55.904;2023-07-08T03:56:58;42.55;;;24.33;;
60054;SDS011;45930;53.514;55.904;2023-07-08T03:57:59;38.00;;;22.23;;
60054;SDS011;45930;53.514;55.904;2023-07-08T03:58:59;37.33;;;23.38;;
60054;SDS011;45930;53.514;55.904;2023-07-08T04:00:00;39.38;;;23.00;;
60054;SDS011;45930;53.514;55.904;2023-07-08T04:01:01;35.15;;;21.48;;
60054;SDS011;45930;53.514;55.904;2023-07-08T04:02:02;35.55;;;20.98;;
60054;SDS011;45930;53.514;55.904;2023-07-08T04:03:03;41.20;;;21.77;;
60054;SDS011;45930;53.514;55.904;2023-07-08T04:04:04;36.03;;;21.05;;
60054;SDS011;45930;53.514;55.904;2023-07-08T04:05:05;35.80;;;21.50;;
60054;SDS011;45930;53.514;55.904;2023-07-08T04:06:06;39.83;;;20.75;;
60054;SDS011;45930;53.514;55.904;2023-07-08T04:07:07;35.38;;;20.45;;
60054;SDS011;45930;53.514;55.904;2023-07-08T04:08:08;35.03;;;20.10;;
60054;SDS011;45930;53.514;55.904;2023-07-08T04:09:08;32.47;;;19.30;;
60054;SDS011;45930;53.514;55.904;2023-07-08T04:10:09;31.25;;;19.85;;
60054;SDS011;45930;53.514;55.904;2023-07-08T04:11:14;31.70;;;19.15;;
60054;SDS011;45930;53.514;55.904;2023-07-08T04:12:17;36.70;;;21.02;;
60054;SDS011;45930;53.514;55.904;2023-07-08T04:13:18;34.28;;;20.08;;
60054;SDS011;45930;53.514;55.904;2023-07-08T04:14:19;26.77;;;18.02;;
60054;SDS011;45930;53.514;55.904;2023-07-08T04:15:19;32.38;;;19.00;;
60054;SDS011;45930;53.514;55.904;2023-07-08T04:16:27;32.78;;;18.85;;
60054;SDS011;45930;53.514;55.904;2023-07-08T04:17:30;30.58;;;18.40;;
60054;SDS011;45930;53.514;55.904;2023-07-08T04:18:31;27.75;;;17.35;;
60054;SDS011;45930;53.514;55.904;2023-07-08T04:19:32;35.42;;;18.35;;
60054;SDS011;45930;53.514;55.904;2023-07-08T04:20:33;28.67;;;18.90;;
60054;SDS011;45930;53.514;55.904;2023-07-08T04:21:34;26.83;;;17.52;;
60054;SDS011;45930;53.514;55.904;2023-07-08T04:22:35;32.65;;;18.30;;
60054;SDS011;45930;53.514;55.904;2023-07-08T04:23:35;28.92;;;18.20;;
60054;SDS011;45930;53.514;55.904;2023-07-08T04:24:36;30.92;;;16.77;;
60054;SDS011;45930;53.514;55.904;2023-07-08T04:25:37;29.75;;;17.80;;
60054;SDS011;45930;53.514;55.904;2023-07-08T04:26:38;28.75;;;17.52;;
60054;SDS011;45930;53.514;55.904;2023-07-08T04:27:39;25.73;;;16.67;;
60054;SDS011;45930;53.514;55.904;2023-07-08T04:28:41;22.98;;;16.25;;
60054;SDS011;45930;53.514;55.904;2023-07-08T04:29:43;27.30;;;17.75;;
60054;SDS011;45930;53.514;55.904;2023-07-08T04:30:44;25.38;;;16.67;;
60054;SDS011;45930;53.514;55.904;2023-07-08T04:31:45;31.17;;;15.82;;
60054;SDS011;45930;53.514;55.904;2023-07-08T04:32:46;32.60;;;16.33;;
60054;SDS011;45930;53.514;55.904;2023-07-08T04:33:47;39.10;;;17.65;;
60054;SDS011;45930;53.514;55.904;2023-07-08T04:34:48;30.67;;;17.75;;
60054;SDS011;45930;53.514;55.904;2023-07-08T04:35:48;29.98;;;17.23;;
60054;SDS011;45930;53.514;55.904;2023-07-08T04:36:49;25.42;;;16.70;;
60054;SDS011;45930;53.514;55.904;2023-07-08T04:37:50;31.42;;;16.55;;
60054;SDS011;45930;53.514;55.904;2023-07-08T04:38:51;29.60;;;17.08;;
60054;SDS011;45930;53.514;55.904;2023-07-08T04:39:52;34.38;;;17.83;;
60054;SDS011;45930;53.514;55.904;2023-07-08T04:40:53;30.17;;;16.58;;
60054;SDS011;45930;53.514;55.904;2023-07-08T04:41:54;29.73;;;18.00;;
60054;SDS011;45930;53.514;55.904;2023-07-08T04:42:55;31.48;;;18.00;;
60054;SDS011;45930;53.514;55.904;2023-07-08T04:43:56;28.83;;;18.10;;
60054;SDS011;45930;53.514;55.904;2023-07-08T04:44:57;34.65;;;17.95;;
60054;SDS011;45930;53.514;55.904;2023-07-08T04:45:58;29.65;;;18.42;;
60054;SDS011;45930;53.514;55.904;2023-07-08T04:47:00;32.00;;;17.55;;
60054;SDS011;45930;53.514;55.904;2023-07-08T04:48:01;31.25;;;18.45;;
60054;SDS011;45930;53.514;55.904;2023-07-08T04:49:09;27.33;;;17.60;;
60054;SDS011;45930;53.514;55.904;2023-07-08T04:50:09;24.90;;;16.42;;
60054;SDS011;45930;53.514;55.904;2023-07-08T04:51:11;26.25;;;16.65;;
60054;SDS011;45930;53.514;55.904;2023-07-08T04:52:12;28.55;;;17.05;;
60054;SDS011;45930;53.514;55.904;2023-07-08T04:53:13;35.53;;;16.75;;
60054;SDS011;45930;53.514;55.904;2023-07-08T04:54:13;27.98;;;15.82;;
60054;SDS011;45930;53.514;55.904;2023-07-08T04:55:15;28.25;;;15.88;;
60054;SDS011;45930;53.514;55.904;2023-07-08T04:56:16;31.02;;;16.88;;
60054;SDS011;45930;53.514;55.904;2023-07-08T04:57:17;25.40;;;16.27;;
60054;SDS011;45930;53.514;55.904;2023-07-08T04:58:18;27.10;;;17.25;;
60054;SDS011;45930;53.514;55.904;2023-07-08T04:59:21;23.38;;;15.27;;
60054;SDS011;45930;53.514;55.904;2023-07-08T05:00:23;27.75;;;16.95;;
60054;SDS011;45930;53.514;55.904;2023-07-08T05:01:24;33.35;;;17.10;;
60054;SDS011;45930;53.514;55.904;2023-07-08T05:02:26;26.90;;;16.00;;
60054;SDS011;45930;53.514;55.904;2023-07-08T05:03:27;22.85;;;13.82;;
60054;SDS011;45930;53.514;55.904;2023-07-08T05:04:28;22.58;;;13.65;;
60054;SDS011;45930;53.514;55.904;2023-07-08T05:05:29;23.17;;;14.68;;
60054;SDS011;45930;53.514;55.904;2023-07-08T05:06:30;21.13;;;14.10;;
60054;SDS011;45930;53.514;55.904;2023-07-08T05:07:31;25.33;;;16.85;;
60054;SDS011;45930;53.514;55.904;2023-07-08T05:08:32;26.25;;;14.27;;
60054;SDS011;45930;53.514;55.904;2023-07-08T05:09:33;22.98;;;13.80;;
60054;SDS011;45930;53.514;55.904;2023-07-08T05:10:35;24.63;;;14.40;;
60054;SDS011;45930;53.514;55.904;2023-07-08T05:11:36;19.30;;;14.77;;
60054;SDS011;45930;53.514;55.904;2023-07-08T05:12:37;25.30;;;14.75;;
60054;SDS011;45930;53.514;55.904;2023-07-08T05:13:38;24.92;;;15.48;;
60054;SDS011;45930;53.514;55.904;2023-07-08T05:14:39;22.95;;;14.60;;
60054;SDS011;45930;53.514;55.904;2023-07-08T05:15:40;25.17;;;15.60;;
60054;SDS011;45930;53.514;55.904;2023-07-08T05:16:40;31.20;;;14.43;;
60054;SDS011;45930;53.514;55.904;2023-07-08T05:17:42;27.95;;;16.33;;
60054;SDS011;45930;53.514;55.904;2023-07-08T05:18:43;26.00;;;14.43;;
60054;SDS011;45930;53.514;55.904;2023-07-08T05:19:45;39.28;;;15.65;;
60054;SDS011;45930;53.514;55.904;2023-07-08T05:20:52;27.63;;;15.77;;
60054;SDS011;45930;53.514;55.904;2023-07-08T05:21:55;22.50;;;14.38;;
60054;SDS011;45930;53.514;55.904;2023-07-08T05:22:55;22.77;;;14.70;;
60054;SDS011;45930;53.514;55.904;2023-07-08T05:23:56;23.50;;;14.77;;
60054;SDS011;45930;53.514;55.904;2023-07-08T05:24:57;23.48;;;14.25;;
60054;SDS011;45930;53.514;55.904;2023-07-08T05:26:01;23.65;;;14.32;;
60054;SDS011;45930;53.514;55.904;2023-07-08T05:27:03;23.13;;;14.18;;
60054;SDS011;45930;53.514;55.904;2023-07-08T05:28:04;22.17;;;14.73;;
60054;SDS011;45930;53.514;55.904;2023-07-08T05:29:05;24.13;;;14.40;;
60054;SDS011;45930;53.514;55.904;2023-07-08T05:30:06;23.30;;;15.70;;
60054;SDS011;45930;53.514;55.904;2023-07-08T05:31:12;28.38;;;15.73;;
60054;SDS011;45930;53.514;55.904;2023-07-08T05:32:13;32.50;;;15.85;;
60054;SDS011;45930;53.514;55.904;2023-07-08T05:33:13;26.63;;;16.63;;
60054;SDS011;45930;53.514;55.904;2023-07-08T05:34:15;29.08;;;16.33;;
60054;SDS011;45930;53.514;55.904;2023-07-08T05:35:16;20.95;;;13.80;;
60054;SDS011;45930;53.514;55.904;2023-07-08T05:36:17;25.33;;;14.88;;
60054;SDS011;45930;53.514;55.904;2023-07-08T05:37:17;23.00;;;14.82;;
60054;SDS011;45930;53.514;55.904;2023-07-08T05:38:24;24.02;;;13.88;;
60054;SDS011;45930;53.514;55.904;2023-07-08T05:39:25;44.47;;;15.45;;
60054;SDS011;45930;53.514;55.904;2023-07-08T05:40:26;23.50;;;14.63;;
60054;SDS011;45930;53.514;55.904;2023-07-08T05:41:26;19.45;;;15.32;;
60054;SDS011;45930;53.514;55.904;2023-07-08T05:42:27;23.15;;;14.95;;
60054;SDS011;45930;53.514;55.904;2023-07-08T05:43:28;19.00;;;14.00;;
60054;SDS011;45930;53.514;55.904;2023-07-08T05:44:29;20.52;;;12.85;;
60054;SDS011;45930;53.514;55.904;2023-07-08T05:45:30;19.77;;;13.73;;
60054;SDS011;45930;53.514;55.904;2023-07-08T05:46:31;21.25;;;13.80;;
60054;SDS011;45930;53.514;55.904;2023-07-08T05:47:31;23.98;;;13.15;;
60054;SDS011;45930;53.514;55.904;2023-07-08T05:48:32;23.10;;;14.18;;
60054;SDS011;45930;53.514;55.904;2023-07-08T05:49:33;25.00;;;13.45;;
60054;SDS011;45930;53.514;55.904;2023-07-08T05:50:34;19.83;;;13.40;;
60054;SDS011;45930;53.514;55.904;2023-07-08T05:51:36;24.08;;;14.52;;
60054;SDS011;45930;53.514;55.904;2023-07-08T05:52:37;20.55;;;14.20;;
60054;SDS011;45930;53.514;55.904;2023-07-08T05:53:38;23.45;;;13.95;;
60054;SDS011;45930;53.514;55.904;2023-07-08T05:54:38;20.17;;;13.30;;
60054;SDS011;45930;53.514;55.904;2023-07-08T05:55:40;22.95;;;13.50;;
60054;SDS011;45930;53.514;55.904;2023-07-08T05:56:42;22.95;;;13.85;;
60054;SDS011;45930;53.514;55.904;2023-07-08T05:57:43;20.42;;;12.43;;
60054;SDS011;45930;53.514;55.904;2023-07-08T05:58:44;17.52;;;11.95;;
60054;SDS011;45930;53.514;55.904;2023-07-08T05:59:45;17.58;;;10.60;;
60054;SDS011;45930;53.514;55.904;2023-07-08T06:00:46;20.83;;;12.63;;
60054;SDS011;45930;53.514;55.904;2023-07-08T06:01:46;19.48;;;13.02;;
60054;SDS011;45930;53.514;55.904;2023-07-08T06:02:47;18.90;;;12.45;;
60054;SDS011;45930;53.514;55.904;2023-07-08T06:03:48;18.45;;;11.75;;